Time;durP1;ratioP1;P1;durP2;ratioP2;P2;SDS_P1;SDS_P2;PMS_P1;PMS_P2;Temp;Humidity;BMP_temperature;BMP_pressure;BME280_temperature;BME280_humidity;BME280_pressure;Samples;Min_cycle;Max_cycle;Signal;HPM_P1;HPM_P2
2022/05/28 00:01:50;;;;;;;1.50;0.75;;;;;;;14.55;78.59;98781.25;5083120;28;20046;-58
2022/05/28 00:04:35;;;;;;;0.90;0.40;;;;;;;14.60;79.57;98791.41;5111607;28;20073;-59
2022/05/28 00:07:19;;;;;;;1.50;0.88;;;;;;;14.38;79.21;98790.56;5112874;28;20472;-58
2022/05/28 00:10:05;;;;;;;0.30;0.22;;;;;;;14.38;81.23;98793.22;5111456;28;20084;-58
2022/05/28 00:12:50;;;;;;;0.70;0.40;;;;;;;14.48;80.76;98799.38;5112205;28;20055;-59
2022/05/28 00:15:35;;;;;;;0.70;0.50;;;;;;;14.47;81.03;98788.97;5111079;28;20390;-58
2022/05/28 00:18:20;;;;;;;0.50;0.30;;;;;;;14.53;81.10;98768.22;5111453;28;20374;-59
2022/05/28 00:21:04;;;;;;;0.95;0.55;;;;;;;14.50;79.95;98775.53;5112264;28;20076;-60
2022/05/28 00:23:49;;;;;;;0.60;0.45;;;;;;;14.38;81.45;98778.25;5111339;28;20363;-60
2022/05/28 00:26:34;;;;;;;1.00;0.50;;;;;;;14.50;80.25;98775.53;5110070;28;20070;-60
2022/05/28 00:29:21;;;;;;;0.52;0.40;;;;;;;14.63;80.60;98759.50;5110546;28;20531;-59
2022/05/28 00:32:07;;;;;;;0.70;0.50;;;;;;;14.79;80.49;98769.56;5097124;28;20097;-60
2022/05/28 00:34:51;;;;;;;1.50;0.57;;;;;;;14.41;81.63;98774.53;5111924;28;20156;-60
2022/05/28 00:37:36;;;;;;;0.70;0.50;;;;;;;14.37;82.89;98779.22;5111732;28;20039;-60
2022/05/28 00:40:26;;;;;;;1.13;0.70;;;;;;;14.57;82.88;98776.69;5112731;28;20063;-59
2022/05/28 00:43:12;;;;;;;2.07;0.77;;;;;;;14.24;83.37;98781.22;5111446;28;20047;-60
2022/05/28 00:46:03;;;;;;;1.00;0.63;;;;;;;14.36;84.16;98781.97;5108988;28;20779;-60
2022/05/28 00:48:55;;;;;;;0.85;0.60;;;;;;;14.58;83.19;98783.63;5111274;28;20081;-60
2022/05/28 00:51:44;;;;;;;1.55;0.65;;;;;;;14.60;83.09;98783.50;5110584;28;20050;-60
2022/05/28 00:54:35;;;;;;;1.20;0.70;;;;;;;14.34;84.22;98787.38;5110754;28;20040;-58
2022/05/28 00:57:21;;;;;;;2.47;0.52;;;;;;;14.38;84.70;98780.88;5111338;28;20042;-60
2022/05/28 01:00:10;;;;;;;0.43;0.32;;;;;;;14.65;84.11;98779.50;5111678;28;20092;-60
2022/05/28 01:02:57;;;;;;;0.95;0.57;;;;;;;14.74;81.04;98782.31;5109458;28;20039;-59
2022/05/28 01:05:55;;;;;;;1.02;0.57;;;;;;;14.39;83.79;98792.25;5110755;28;20070;-59
2022/05/28 01:08:50;;;;;;;1.45;0.60;;;;;;;14.61;85.03;98793.06;5110384;28;20039;-59
2022/05/28 01:11:47;;;;;;;2.78;0.68;;;;;;;14.85;82.77;98787.53;5110824;28;20067;-60
2022/05/28 01:14:45;;;;;;;1.25;0.55;;;;;;;14.75;83.68;98776.91;5108625;28;20730;-59
2022/05/28 01:17:53;;;;;;;1.23;0.60;;;;;;;14.75;83.74;98769.00;5109201;28;20596;-60
2022/05/28 01:20:45;;;;;;;0.30;0.25;;;;;;;14.66;84.62;98773.25;5089605;28;20051;-59
2022/05/28 01:23:33;;;;;;;0.88;0.50;;;;;;;14.77;83.70;98763.59;5110663;28;20067;-60
2022/05/28 01:26:32;;;;;;;1.05;0.40;;;;;;;14.80;83.75;98763.38;5110914;28;20032;-60
2022/05/28 01:29:18;;;;;;;0.73;0.32;;;;;;;14.76;84.10;98761.91;5111073;28;20039;-59
2022/05/28 01:32:04;;;;;;;1.88;0.63;;;;;;;14.82;83.28;98753.50;5110964;28;20039;-59
2022/05/28 01:34:50;;;;;;;0.57;0.40;;;;;;;14.76;84.00;98752.22;5109837;28;20131;-59
2022/05/28 01:37:36;;;;;;;0.88;0.47;;;;;;;14.80;84.33;98749.34;5095145;28;20438;-59
2022/05/28 01:40:23;;;;;;;1.15;0.65;;;;;;;14.70;83.01;98742.22;5110090;28;20043;-59
2022/05/28 01:43:12;;;;;;;0.50;0.40;;;;;;;14.75;83.58;98736.53;5109559;28;20360;-60
2022/05/28 01:45:57;;;;;;;0.50;0.40;;;;;;;14.77;83.27;98738.06;5109314;28;20167;-59
2022/05/28 01:48:44;;;;;;;0.90;0.50;;;;;;;14.76;83.29;98740.81;5110076;28;20040;-60
2022/05/28 01:51:37;;;;;;;0.68;0.40;;;;;;;14.66;83.51;98739.00;5093578;28;20043;-59
2022/05/28 01:54:26;;;;;;;0.70;0.25;;;;;;;14.45;83.42;98740.81;5094153;28;20368;-59
2022/05/28 01:57:13;;;;;;;1.90;0.50;;;;;;;14.53;84.02;98736.56;5109866;28;20043;-58
2022/05/28 01:59:58;;;;;;;1.65;0.47;;;;;;;14.47;82.83;98737.09;5109991;28;20051;-59
2022/05/28 02:02:42;;;;;;;1.15;0.73;;;;;;;14.33;83.38;98730.34;5108381;28;20058;-59
2022/05/28 02:05:27;;;;;;;1.17;0.70;;;;;;;13.98;84.69;98732.38;5104498;28;20108;-58
2022/05/28 02:08:13;;;;;;;0.98;0.63;;;;;;;13.68;86.23;98731.31;5106432;28;20391;-59
2022/05/28 02:11:17;;;;;;;1.35;0.75;;;;;;;13.38;88.11;98719.69;5108453;28;20060;-59
2022/05/28 02:14:26;;;;;;;1.30;0.70;;;;;;;13.17;89.48;98723.09;5107846;28;20043;-59
2022/05/28 02:17:29;;;;;;;1.92;0.80;;;;;;;13.19;89.44;98710.63;5106895;28;20096;-59
2022/05/28 02:20:33;;;;;;;0.95;0.60;;;;;;;13.22;89.99;98714.84;5108107;28;20059;-59
2022/05/28 02:23:24;;;;;;;2.50;1.00;;;;;;;13.18;90.59;98712.44;5106052;28;20112;-59
2022/05/28 02:26:25;;;;;;;3.25;1.00;;;;;;;13.13;91.03;98717.25;5107380;28;20517;-59
2022/05/28 02:29:11;;;;;;;2.70;1.00;;;;;;;13.11;91.57;98705.16;5105876;28;20774;-60
2022/05/28 02:31:56;;;;;;;1.20;0.57;;;;;;;13.06;91.79;98705.53;5105654;28;20040;-59
2022/05/28 02:34:45;;;;;;;2.80;0.80;;;;;;;13.24;90.60;98702.38;5107013;28;20089;-59
2022/05/28 02:37:30;;;;;;;1.40;0.90;;;;;;;13.27;88.23;98692.44;5105218;28;20042;-58
2022/05/28 02:40:15;;;;;;;0.77;0.65;;;;;;;13.25;87.78;98686.47;5105378;28;20032;-59
2022/05/28 02:43:01;;;;;;;1.25;0.73;;;;;;;13.17;84.89;98694.16;5105744;28;20043;-59
2022/05/28 02:45:46;;;;;;;4.00;1.00;;;;;;;13.12;82.84;98688.44;5105510;28;20036;-58
2022/05/28 02:48:31;;;;;;;1.92;0.70;;;;;;;13.20;82.36;98678.13;5105482;28;20032;-59
2022/05/28 02:51:21;;;;;;;2.42;0.80;;;;;;;13.15;81.01;98680.28;5108187;28;20043;-59
2022/05/28 02:54:05;;;;;;;3.00;0.85;;;;;;;13.10;80.78;98678.03;5120991;27;20027;-58
2022/05/28 02:56:50;;;;;;;1.50;0.70;;;;;;;13.13;80.46;98674.31;5110242;28;20036;-59
2022/05/28 02:59:35;;;;;;;3.55;0.82;;;;;;;13.26;79.14;98682.88;5110221;28;20207;-60
2022/05/28 03:02:19;;;;;;;3.92;1.08;;;;;;;13.10;80.22;98683.31;5107461;28;20492;-60
2022/05/28 03:05:05;;;;;;;3.80;0.82;;;;;;;13.18;80.78;98687.94;5110461;28;20153;-60
2022/05/28 03:07:49;;;;;;;2.80;1.20;;;;;;;13.19;80.79;98686.97;5112139;28;20043;-60
2022/05/28 03:10:34;;;;;;;2.78;0.90;;;;;;;13.08;79.98;98695.72;5111647;28;20074;-59
2022/05/28 03:13:19;;;;;;;1.75;1.00;;;;;;;13.15;79.52;98682.94;5111499;28;20038;-59
2022/05/28 03:16:04;;;;;;;1.55;1.02;;;;;;;13.15;79.49;98688.19;5109755;28;20104;-60
2022/05/28 03:18:49;;;;;;;3.38;1.02;;;;;;;13.18;80.53;98685.31;5110011;28;20074;-60
2022/05/28 03:21:34;;;;;;;2.58;1.10;;;;;;;13.21;80.88;98685.06;5110104;28;20084;-59
2022/05/28 03:24:18;;;;;;;1.98;1.13;;;;;;;13.16;81.24;98685.44;5110376;28;20034;-59
2022/05/28 03:27:04;;;;;;;1.75;1.00;;;;;;;13.03;81.69;98669.81;5110143;28;20492;-59
2022/05/28 03:29:48;;;;;;;3.85;1.23;;;;;;;13.08;81.49;98671.22;5108761;28;20528;-58
2022/05/28 03:32:33;;;;;;;1.65;0.90;;;;;;;13.23;79.27;98677.03;5110190;28;20039;-59
2022/05/28 03:35:18;;;;;;;1.40;0.93;;;;;;;13.18;78.56;98680.03;5109145;28;20040;-59
2022/05/28 03:38:03;;;;;;;3.17;0.75;;;;;;;13.16;79.88;98674.06;5095615;28;20040;-59
2022/05/28 03:40:48;;;;;;;3.05;1.20;;;;;;;13.22;79.28;98663.03;5108998;28;20059;-59
2022/05/28 03:43:33;;;;;;;3.03;1.20;;;;;;;13.19;78.22;98668.56;5108357;28;20447;-59
2022/05/28 03:46:28;;;;;;;3.38;0.93;;;;;;;13.36;76.46;98672.44;5096714;28;20046;-59
2022/05/28 03:49:35;;;;;;;3.38;1.00;;;;;;;13.30;74.37;98672.97;5108761;28;20100;-59
2022/05/28 03:52:19;;;;;;;2.38;0.88;;;;;;;13.26;74.31;98679.41;5107122;28;20055;-59
2022/05/28 03:55:05;;;;;;;3.03;0.90;;;;;;;13.24;76.21;98686.59;5107030;28;20051;-61
2022/05/28 03:57:49;;;;;;;4.65;0.90;;;;;;;13.27;73.31;98681.91;5107894;28;20027;-59
2022/05/28 04:00:34;;;;;;;1.48;0.73;;;;;;;13.45;71.66;98686.63;5106447;28;20425;-61
2022/05/28 04:03:19;;;;;;;2.38;1.20;;;;;;;13.38;70.70;98683.66;5107209;28;20450;-59
2022/05/28 04:06:04;;;;;;;1.63;0.80;;;;;;;13.60;70.26;98697.75;5110275;28;20043;-60
2022/05/28 04:08:49;;;;;;;2.13;1.05;;;;;;;13.67;68.84;98667.31;5095194;28;20028;-59
2022/05/28 04:11:35;;;;;;;3.78;1.02;;;;;;;13.55;67.93;98668.31;5095654;28;20359;-60
2022/05/28 04:14:21;;;;;;;1.35;0.95;;;;;;;13.59;67.97;98682.06;5110288;28;20123;-59
2022/05/28 04:17:06;;;;;;;1.90;0.90;;;;;;;13.40;67.72;98680.91;5109759;28;20059;-59
2022/05/28 04:19:51;;;;;;;4.00;0.95;;;;;;;13.53;66.98;98694.78;5109046;28;20110;-59
2022/05/28 04:22:36;;;;;;;2.20;0.82;;;;;;;13.51;66.28;98698.50;5103052;28;20413;-60
2022/05/28 04:25:21;;;;;;;3.20;1.00;;;;;;;13.49;66.13;98698.59;5105306;28;20325;-59
2022/05/28 04:28:06;;;;;;;3.78;0.90;;;;;;;13.60;66.16;98704.78;5103159;28;20043;-59
2022/05/28 04:30:51;;;;;;;1.25;0.90;;;;;;;13.67;66.58;98701.53;5078440;28;20081;-59
2022/05/28 04:33:36;;;;;;;1.48;0.70;;;;;;;13.61;66.58;98696.75;5103699;28;20040;-59
2022/05/28 04:36:21;;;;;;;1.40;0.70;;;;;;;13.70;66.53;98708.34;5103975;28;20056;-59
2022/05/28 04:39:07;;;;;;;1.73;0.70;;;;;;;13.84;67.09;98703.75;5106687;28;20039;-59
2022/05/28 04:41:51;;;;;;;4.15;0.82;;;;;;;13.84;65.34;98704.56;5108456;28;20046;-59
2022/05/28 04:44:36;;;;;;;2.58;0.77;;;;;;;13.85;67.15;98705.41;5107193;28;20027;-60
2022/05/28 04:47:21;;;;;;;2.55;0.90;;;;;;;13.70;66.63;98708.34;5106562;28;20055;-59
2022/05/28 04:50:07;;;;;;;2.35;0.90;;;;;;;13.80;66.95;98708.41;5105787;28;20039;-60
2022/05/28 04:52:52;;;;;;;1.55;0.80;;;;;;;13.78;67.69;98715.59;5106610;28;20051;-59
2022/05/28 04:55:38;;;;;;;1.77;1.15;;;;;;;13.84;68.29;98730.06;5106619;28;20027;-59
2022/05/28 04:58:24;;;;;;;2.40;1.33;;;;;;;13.92;69.81;98712.66;5104774;28;20031;-59
2022/05/28 05:01:14;;;;;;;1.92;1.13;;;;;;;13.90;69.76;98714.59;5104516;28;20047;-60
2022/05/28 05:03:58;;;;;;;1.98;0.95;;;;;;;13.88;70.57;98711.25;5109416;28;20074;-59
2022/05/28 05:06:44;;;;;;;4.20;0.82;;;;;;;13.81;71.61;98707.44;5110492;28;20048;-59
2022/05/28 05:09:28;;;;;;;3.40;1.08;;;;;;;13.92;71.04;98725.81;5137826;27;20035;-59
2022/05/28 05:12:14;;;;;;;3.38;1.17;;;;;;;14.06;71.13;98717.72;5093412;28;20036;-59
2022/05/28 05:14:58;;;;;;;2.15;0.90;;;;;;;14.62;68.90;98720.94;5108608;28;20043;-59
2022/05/28 05:17:43;;;;;;;2.40;0.90;;;;;;;15.34;66.49;98712.13;5108177;28;20463;-59
2022/05/28 05:20:28;;;;;;;1.10;0.70;;;;;;;15.49;67.95;98705.47;5108231;28;20062;-59
2022/05/28 05:23:13;;;;;;;0.88;0.57;;;;;;;15.55;68.08;98695.31;5109273;28;20504;-59
2022/05/28 05:25:58;;;;;;;1.50;0.70;;;;;;;15.91;67.13;98687.66;5110883;28;20122;-59
2022/05/28 05:28:44;;;;;;;1.63;0.70;;;;;;;16.69;64.32;98698.97;5109827;28;20168;-59
2022/05/28 05:31:28;;;;;;;1.88;0.65;;;;;;;16.39;64.57;98692.97;5109300;28;20669;-59
2022/05/28 05:34:13;;;;;;;2.17;0.50;;;;;;;16.62;64.84;98690.78;5106995;28;20039;-60
2022/05/28 05:36:58;;;;;;;3.17;1.42;;;;;;;17.63;61.98;98708.56;5090320;28;20100;-59
2022/05/28 05:39:43;;;;;;;3.70;0.95;;;;;;;17.62;59.62;98717.50;5108863;28;20035;-58
2022/05/28 05:42:28;;;;;;;3.95;1.23;;;;;;;17.06;59.70;98723.69;5108739;28;20494;-59
2022/05/28 05:45:12;;;;;;;2.65;0.52;;;;;;;17.67;59.29;98719.69;5108108;28;20394;-58
2022/05/28 05:47:57;;;;;;;2.00;0.95;;;;;;;16.48;63.80;98723.81;5109392;28;20043;-58
2022/05/28 05:50:42;;;;;;;1.75;1.05;;;;;;;16.04;65.58;98700.59;5109194;28;20035;-58
2022/05/28 05:53:27;;;;;;;5.07;1.60;;;;;;;17.36;57.65;98711.13;5088551;28;20043;-70
2022/05/28 05:56:13;;;;;;;1.60;0.80;;;;;;;17.28;54.98;98713.72;5073857;28;20067;-70
2022/05/28 05:58:59;;;;;;;2.92;0.80;;;;;;;16.82;54.98;98711.03;5075651;28;20066;-72
2022/05/28 06:01:44;;;;;;;4.88;1.33;;;;;;;16.64;55.07;98727.66;5092458;28;20058;-71
2022/05/28 06:04:28;;;;;;;2.88;1.02;;;;;;;16.25;56.89;98710.94;5088130;28;20032;-71
2022/05/28 06:07:13;;;;;;;1.33;0.60;;;;;;;16.71;56.16;98698.84;5085395;28;20055;-68
2022/05/28 06:09:58;;;;;;;5.18;1.13;;;;;;;17.23;54.82;98713.31;5073717;28;20110;-70
2022/05/28 06:12:43;;;;;;;5.68;0.95;;;;;;;17.41;54.31;98718.63;5089565;28;20066;-70
2022/05/28 06:15:28;;;;;;;3.55;1.10;;;;;;;17.51;53.08;98709.78;5088977;28;20126;-70
2022/05/28 06:18:14;;;;;;;3.38;0.98;;;;;;;16.90;54.12;98711.13;5086427;28;20075;-71
2022/05/28 06:21:00;;;;;;;3.45;1.20;;;;;;;16.95;52.75;98702.72;5087489;28;20043;-72
2022/05/28 06:23:45;;;;;;;3.05;1.02;;;;;;;17.56;55.20;98703.03;5085519;28;20053;-72
2022/05/28 06:26:30;;;;;;;2.83;0.75;;;;;;;17.46;53.16;98710.25;5083438;28;20109;-71
2022/05/28 06:29:16;;;;;;;4.07;0.88;;;;;;;17.20;52.80;98717.09;5084275;28;20120;-72
2022/05/28 06:32:00;;;;;;;2.58;1.00;;;;;;;17.29;52.41;98703.94;5082591;28;20627;-72
2022/05/28 06:34:45;;;;;;;2.83;0.90;;;;;;;17.19;53.76;98706.66;5084894;28;20059;-72
2022/05/28 06:37:30;;;;;;;2.67;0.93;;;;;;;17.61;52.33;98687.53;5083808;28;20043;-74
2022/05/28 06:40:16;;;;;;;5.05;0.90;;;;;;;16.68;53.23;98699.94;5085268;28;20433;-70
2022/05/28 06:43:04;;;;;;;3.80;1.08;;;;;;;16.86;53.79;98697.34;5082260;28;20427;-73
2022/05/28 06:45:49;;;;;;;1.25;0.80;;;;;;;17.45;52.90;98695.31;5072353;28;20060;-72
2022/05/28 06:48:36;;;;;;;6.03;1.23;;;;;;;16.90;53.36;98694.41;5072356;28;20132;-73
2022/05/28 06:51:21;;;;;;;4.53;1.10;;;;;;;17.30;52.00;98706.44;5091671;28;20085;-78
2022/05/28 06:54:07;;;;;;;4.88;0.90;;;;;;;17.03;50.05;98702.84;5106580;28;20044;-64
2022/05/28 06:56:53;;;;;;;4.85;0.85;;;;;;;16.82;52.02;98716.31;5091414;28;20096;-69
2022/05/28 06:59:38;;;;;;;4.22;1.05;;;;;;;16.66;52.60;98712.50;5108264;28;20149;-69
2022/05/28 07:02:23;;;;;;;9.10;1.38;;;;;;;17.18;51.96;98713.78;5106567;28;20051;-68
2022/05/28 07:05:14;;;;;;;4.28;1.08;;;;;;;17.72;50.51;98704.97;5078615;28;20126;-67
2022/05/28 07:08:02;;;;;;;2.35;1.05;;;;;;;18.52;47.40;98698.91;5106484;28;20040;-70
2022/05/28 07:10:53;;;;;;;2.47;0.65;;;;;;;18.91;48.53;98693.09;5093456;28;20047;-69
2022/05/28 07:13:39;;;;;;;3.15;1.00;;;;;;;18.46;47.31;98692.41;5106141;28;20364;-68
2022/05/28 07:16:24;;;;;;;3.20;1.25;;;;;;;17.48;47.95;98698.50;5106092;28;20039;-68
2022/05/28 07:19:10;;;;;;;3.67;1.25;;;;;;;18.17;47.86;98691.75;5091904;28;20071;-68
2022/05/28 07:21:55;;;;;;;3.65;1.15;;;;;;;18.74;46.14;98699.31;5106749;28;20051;-68
2022/05/28 07:24:40;;;;;;;1.92;0.90;;;;;;;18.28;47.30;98695.16;5092222;28;20147;-65
2022/05/28 07:27:25;;;;;;;2.53;0.82;;;;;;;17.41;49.28;98702.75;5107386;28;20099;-70
2022/05/28 07:30:11;;;;;;;3.88;1.00;;;;;;;17.69;48.82;98693.88;5108245;28;20043;-71
2022/05/28 07:32:57;;;;;;;6.40;1.25;;;;;;;18.64;43.80;98697.63;5105604;28;20078;-70
2022/05/28 07:35:42;;;;;;;3.58;1.08;;;;;;;18.20;44.11;98695.91;5111094;28;20043;-69
2022/05/28 07:38:30;;;;;;;4.32;0.98;;;;;;;18.27;42.42;98688.16;5095991;28;20034;-68
2022/05/28 07:41:19;;;;;;;3.65;0.80;;;;;;;18.23;42.92;98708.84;5111281;28;20096;-68
2022/05/28 07:44:06;;;;;;;5.45;1.05;;;;;;;18.53;41.16;98693.44;5112521;28;20119;-69
2022/05/28 07:46:53;;;;;;;1.50;0.77;;;;;;;19.38;40.13;98688.22;5110587;28;20081;-68
2022/05/28 07:49:38;;;;;;;3.78;0.80;;;;;;;19.62;41.13;98696.41;5112583;28;20058;-68
2022/05/28 07:52:23;;;;;;;4.22;1.08;;;;;;;19.19;42.81;98690.19;5111900;28;20052;-67
2022/05/28 07:55:10;;;;;;;7.57;1.20;;;;;;;19.41;43.39;98685.25;5109945;28;20048;-69
2022/05/28 07:57:55;;;;;;;4.38;1.10;;;;;;;18.68;43.90;98676.91;5111070;28;20047;-68
2022/05/28 08:00:43;;;;;;;6.05;0.90;;;;;;;18.60;43.22;98677.72;5115236;28;20032;-57
2022/05/28 08:03:29;;;;;;;4.05;1.05;;;;;;;19.22;42.89;98686.38;5110870;28;20047;-68
2022/05/28 08:06:15;;;;;;;2.63;0.80;;;;;;;19.54;40.74;98700.69;5111860;28;20043;-69
2022/05/28 08:09:00;;;;;;;4.93;0.98;;;;;;;19.67;39.80;98707.34;5108456;28;20059;-67
2022/05/28 08:11:45;;;;;;;2.38;0.80;;;;;;;19.55;40.80;98712.16;5093380;28;20059;-67
2022/05/28 08:14:30;;;;;;;5.20;1.08;;;;;;;20.62;40.69;98710.38;5109716;28;20096;-67
2022/05/28 08:17:15;;;;;;;3.38;0.95;;;;;;;20.63;38.46;98711.22;5110758;28;20039;-67
2022/05/28 08:20:00;;;;;;;5.13;1.10;;;;;;;18.00;44.45;98727.91;5096835;28;20395;-68
2022/05/28 08:25:49;;;;;;;2.80;0.93;;;;;;;19.80;40.13;98728.09;5111371;28;20176;-67
2022/05/28 08:28:36;;;;;;;1.20;0.60;;;;;;;19.64;40.51;98726.25;5110831;28;20118;-67
2022/05/28 08:31:22;;;;;;;2.38;0.80;;;;;;;18.55;42.80;98720.66;5110098;28;20058;-67
2022/05/28 08:34:06;;;;;;;3.95;0.80;;;;;;;18.29;44.42;98718.84;5111344;28;20041;-67
2022/05/28 08:36:51;;;;;;;3.67;0.80;;;;;;;19.22;42.81;98722.72;5110537;28;20044;-67
2022/05/28 08:39:37;;;;;;;4.18;1.08;;;;;;;18.91;43.06;98734.72;5109501;28;20123;-67
2022/05/28 08:42:26;;;;;;;6.18;1.55;;;;;;;19.30;41.41;98728.91;5110041;28;20047;-66
2022/05/28 08:45:14;;;;;;;3.53;1.10;;;;;;;19.29;41.82;98743.16;5110719;28;20965;-67
2022/05/28 08:48:01;;;;;;;4.43;0.98;;;;;;;18.98;43.21;98756.94;5110592;28;20074;-68
2022/05/28 08:51:01;;;;;;;5.28;1.23;;;;;;;19.41;43.82;98750.81;5109734;28;20031;-67
2022/05/28 08:53:55;;;;;;;5.65;1.80;;;;;;;20.98;38.89;98746.34;5095127;28;20760;-64
2022/05/28 08:56:41;;;;;;;4.18;0.85;;;;;;;19.61;40.90;98745.19;5111138;28;20063;-67
2022/05/28 08:59:31;;;;;;;5.78;1.30;;;;;;;18.94;43.09;98751.16;5096712;28;20035;-68
2022/05/28 09:02:28;;;;;;;5.47;1.15;;;;;;;18.93;42.22;98741.50;5109173;28;20040;-68
2022/05/28 09:05:22;;;;;;;4.88;1.27;;;;;;;20.02;40.89;98744.38;5110549;28;20039;-69
2022/05/28 09:08:08;;;;;;;2.78;0.88;;;;;;;19.68;42.11;98748.88;5110552;28;20387;-69
2022/05/28 09:10:56;;;;;;;1.70;0.93;;;;;;;19.89;41.46;98737.75;5109407;28;20085;-68
2022/05/28 09:13:49;;;;;;;4.22;1.10;;;;;;;19.50;42.33;98733.91;5109233;28;20044;-67
2022/05/28 09:16:44;;;;;;;3.65;1.10;;;;;;;19.36;41.91;98729.22;5110774;28;20040;-67
2022/05/28 09:19:37;;;;;;;4.93;1.17;;;;;;;20.14;41.38;98724.44;5109923;28;20036;-66
2022/05/28 09:22:24;;;;;;;6.43;0.88;;;;;;;21.03;39.80;98724.53;5108497;28;20290;-68
2022/05/28 09:25:10;;;;;;;7.15;1.30;;;;;;;21.04;39.44;98724.34;5110535;28;20118;-67
2022/05/28 09:28:19;;;;;;;2.50;0.90;;;;;;;21.49;38.64;98726.41;5110860;28;20039;-68
2022/05/28 09:31:45;;;;;;;5.03;1.27;;;;;;;21.87;38.81;98722.16;5108170;27;20039;-67
2022/05/28 09:35:00;;;;;;;11.70;1.45;;;;;;;20.90;37.86;98717.06;5083534;28;20047;-67
2022/05/28 09:38:06;;;;;;;4.00;0.73;;;;;;;21.07;39.05;98719.69;5108630;28;20031;-70
2022/05/28 09:40:53;;;;;;;2.80;0.75;;;;;;;21.40;37.06;98728.28;5109054;28;20039;-67
2022/05/28 09:43:41;;;;;;;2.05;0.70;;;;;;;20.35;37.30;98711.63;5109864;28;20114;-66
2022/05/28 09:46:36;;;;;;;2.03;0.70;;;;;;;20.73;36.38;98716.31;5110448;28;20043;-69
2022/05/28 09:49:24;;;;;;;3.33;0.88;;;;;;;21.27;36.34;98720.06;5114903;28;20050;-65
2022/05/28 09:52:12;;;;;;;2.53;0.90;;;;;;;21.90;35.74;98711.94;5115532;28;20055;-68
2022/05/28 09:55:15;;;;;;;3.45;0.60;;;;;;;23.03;33.20;98696.03;5081280;28;20040;-67
2022/05/28 09:58:05;;;;;;;2.70;0.90;;;;;;;21.60;35.08;98711.00;5113892;28;20375;-67
2022/05/28 10:00:50;;;;;;;3.33;1.10;;;;;;;21.03;37.20;98696.06;5112314;28;20044;-66
2022/05/28 10:06:53;;;;;;;3.75;0.90;;;;;;;21.60;35.02;98695.84;5112686;28;20472;-70
2022/05/28 10:09:50;;;;;;;5.32;0.90;;;;;;;20.51;35.82;98670.81;5108682;28;20035;-67
2022/05/28 10:12:35;;;;;;;3.92;0.70;;;;;;;20.95;35.83;98677.47;5137064;27;20612;-68
2022/05/28 10:15:30;;;;;;;4.70;1.20;;;;;;;22.03;34.22;98670.50;5094176;28;20081;-71
2022/05/28 10:18:36;;;;;;;2.33;0.68;;;;;;;22.99;33.52;98671.56;5110846;28;20050;-69
2022/05/28 10:21:36;;;;;;;2.20;0.50;;;;;;;21.23;34.29;98684.97;5107980;28;20493;-63
2022/05/28 10:24:24;;;;;;;3.00;0.50;;;;;;;20.55;36.02;98680.94;5108983;28;20446;-65
2022/05/28 10:27:28;;;;;;;3.53;0.90;;;;;;;20.40;36.71;98680.03;5092740;28;20055;-65
2022/05/28 10:30:25;;;;;;;7.18;1.02;;;;;;;19.92;37.46;98686.91;5107071;28;20549;-69
2022/05/28 10:33:27;;;;;;;5.55;0.90;;;;;;;21.29;34.93;98684.25;5106357;28;20036;-67
2022/05/28 10:36:17;;;;;;;3.85;0.90;;;;;;;22.44;35.44;98687.88;5107560;28;20101;-67
2022/05/28 10:39:12;;;;;;;6.28;1.00;;;;;;;22.18;32.56;98688.38;5108963;28;20120;-63
2022/05/28 10:41:57;;;;;;;6.43;1.13;;;;;;;21.45;33.20;98690.47;5108786;28;20035;-61
2022/05/28 10:44:43;;;;;;;1.65;0.60;;;;;;;22.76;31.98;98674.38;5107971;28;20032;-62
2022/05/28 10:47:54;;;;;;;2.10;0.50;;;;;;;21.61;33.55;98678.03;5108348;28;20040;-61
2022/05/28 10:51:11;;;;;;;3.40;0.70;;;;;;;22.33;30.77;98683.84;5106551;28;20031;-62
2022/05/28 10:53:59;;;;;;;1.08;0.50;;;;;;;;;;5106919;28;20374;-62
2022/05/28 10:56:50;;;;;;;2.63;0.70;;;;;;;21.81;32.21;98682.88;5106671;28;20143;-62
2022/05/28 10:59:51;;;;;;;2.65;0.50;;;;;;;21.08;33.04;98674.25;5107224;28;20035;-61
2022/05/28 11:03:23;;;;;;;2.95;0.70;;;;;;;22.12;31.27;98677.41;5105435;28;20755;-60
2022/05/28 11:06:33;;;;;;;3.70;0.60;;;;;;;23.34;30.65;98668.19;5105501;28;20035;-60
2022/05/28 11:09:42;;;;;;;3.05;0.43;;;;;;;23.23;30.76;98674.88;5105980;28;20035;-61
2022/05/28 11:12:48;;;;;;;2.17;0.52;;;;;;;22.63;30.59;98651.84;5105614;28;20044;-64
2022/05/28 11:16:03;;;;;;;2.53;0.70;;;;;;;22.57;30.00;98659.75;5108476;28;20466;-62
2022/05/28 11:19:06;;;;;;;1.75;0.40;;;;;;;22.81;28.74;98674.63;5095381;28;20043;-62
2022/05/28 11:22:06;;;;;;;2.30;0.38;;;;;;;22.50;28.69;98663.16;5111295;28;20050;-60
2022/05/28 11:24:53;;;;;;;1.15;0.40;;;;;;;22.67;29.32;98648.81;5109989;28;20032;-65
2022/05/28 11:28:04;;;;;;;0.73;0.28;;;;;;;22.80;28.61;98659.63;5108272;28;20563;-64
2022/05/28 11:30:54;;;;;;;7.43;0.80;;;;;;;22.06;31.14;98655.97;5089237;28;20043;-60
2022/05/28 11:33:44;;;;;;;2.20;0.50;;;;;;;23.25;29.15;98647.97;5107391;28;20034;-62
2022/05/28 11:36:40;;;;;;;0.88;0.30;;;;;;;24.57;26.83;98648.50;5110575;28;20355;-63
2022/05/28 11:39:41;;;;;;;2.45;0.40;;;;;;;23.81;28.12;98643.72;5108790;28;20560;-60
2022/05/28 11:42:31;;;;;;;1.30;0.40;;;;;;;22.22;30.38;98647.81;5110210;28;20040;-60
2022/05/28 11:45:21;;;;;;;4.43;0.52;;;;;;;22.64;30.05;98633.97;5106871;28;20047;-61
2022/05/28 11:51:55;;;;;;;2.17;0.57;;;;;;;23.60;27.13;98649.97;5134036;27;20051;-62
2022/05/28 11:55:11;;;;;;;0.90;0.28;;;;;;;23.63;27.23;98649.56;5109610;28;20040;-60
2022/05/28 11:58:16;;;;;;;3.70;0.40;;;;;;;22.98;28.44;98658.41;5111438;28;20043;-62
2022/05/28 12:01:09;;;;;;;1.20;0.43;;;;;;;22.95;28.37;98654.25;5112415;27;20035;-61
2022/05/28 12:03:55;;;;;;;3.35;0.40;;;;;;;22.01;28.87;98661.84;5111368;28;20043;-62
2022/05/28 12:07:14;;;;;;;1.15;0.20;;;;;;;21.08;30.09;98652.94;5110195;28;20037;-69
2022/05/28 12:10:01;;;;;;;0.98;0.38;;;;;;;21.29;29.46;98659.44;5108716;28;20054;-59
2022/05/28 12:12:58;;;;;;;0.80;0.20;;;;;;;20.70;28.34;98648.28;5108759;28;20106;-61
2022/05/28 12:15:44;;;;;;;2.50;0.22;;;;;;;20.88;30.78;98657.84;5105723;28;20063;-60
2022/05/28 12:18:32;;;;;;;1.90;0.30;;;;;;;22.88;26.91;98646.16;5106084;28;20153;-60
2022/05/28 12:21:25;;;;;;;1.95;0.30;;;;;;;23.80;24.79;98642.06;5106115;28;20414;-60
2022/05/28 12:24:15;;;;;;;0.57;0.35;;;;;;;24.28;24.85;98647.75;5109002;28;20373;-60
2022/05/28 12:27:13;;;;;;;4.15;0.22;;;;;;;20.73;27.34;98652.44;5109372;28;20044;-59
2022/05/28 12:30:01;;;;;;;1.45;0.22;;;;;;;20.32;28.05;98662.22;5109299;28;20799;-59
2022/05/28 12:32:51;;;;;;;0.40;0.13;;;;;;;19.15;29.25;98654.34;5109584;28;20027;-59
2022/05/28 12:35:49;;;;;;;1.33;0.30;;;;;;;18.25;30.29;98653.84;5081748;28;20032;-60
2022/05/28 12:38:57;;;;;;;2.72;0.75;;;;;;;18.20;29.95;98651.69;5111233;28;20044;-60
2022/05/28 12:41:54;;;;;;;0.50;0.15;;;;;;;18.24;30.42;98660.16;5110459;28;20080;-60
2022/05/28 12:44:48;;;;;;;0.90;0.30;;;;;;;18.74;30.20;98649.75;5110702;28;20119;-60
2022/05/28 12:47:34;;;;;;;1.67;0.20;;;;;;;18.60;30.21;98648.53;5109861;28;20394;-60
2022/05/28 12:50:27;;;;;;;0.73;0.28;;;;;;;18.62;30.20;98643.09;5111241;28;20078;-61
2022/05/28 12:53:18;;;;;;;1.40;0.28;;;;;;;18.84;29.89;98642.50;5109845;28;20483;-60
2022/05/28 12:56:07;;;;;;;0.35;0.10;;;;;;;18.39;30.73;98641.00;5110652;28;20047;-60
2022/05/28 12:58:53;;;;;;;0.98;0.20;;;;;;;19.67;29.03;98630.28;5111406;28;20043;-59
2022/05/28 13:01:54;;;;;;;0.75;0.20;;;;;;;18.96;30.28;98632.38;5111370;28;20775;-60
2022/05/28 13:04:58;;;;;;;0.63;0.20;;;;;;;19.69;29.67;98628.28;5109330;28;20039;-59
2022/05/28 13:07:56;;;;;;;2.15;0.20;;;;;;;20.59;27.91;98622.06;5108444;28;20054;-59
2022/05/28 13:10:50;;;;;;;1.27;0.20;;;;;;;20.33;29.18;98618.69;5106790;28;20063;-59
2022/05/28 13:13:52;;;;;;;0.40;0.15;;;;;;;21.04;28.32;98611.69;5107215;28;20093;-60
2022/05/28 13:17:15;;;;;;;0.67;0.20;;;;;;;21.19;28.09;98617.06;5106702;28;20115;-59
2022/05/28 13:20:06;;;;;;;1.17;0.20;;;;;;;20.59;28.38;98622.91;5073325;28;20194;-59
2022/05/28 13:23:39;;;;;;;1.08;0.25;;;;;;;20.58;28.97;98623.88;5071522;28;20425;-61
2022/05/28 13:26:48;;;;;;;1.02;0.10;;;;;;;20.00;29.34;98634.72;5047148;28;20669;-60
2022/05/28 13:29:57;;;;;;;1.75;0.20;;;;;;;18.97;30.51;98625.25;5108063;28;20524;-59
2022/05/28 13:33:03;;;;;;;0.63;0.20;;;;;;;19.12;30.79;98614.88;5106592;28;20044;-59